Time;durP1;ratioP1;P1;durP2;ratioP2;P2;SDS_P1;SDS_P2;PMS_P1;PMS_P2;Temp;Humidity;BMP_temperature;BMP_pressure;BME280_temperature;BME280_humidity;BME280_pressure;Samples;Min_cycle;Max_cycle;Signal;HPM_P1;HPM_P2
2021/08/14 00:01:31;;;;;;;5.13;4.47;;;19.00;85.70;;;;;;6297812;22;20023;-94
2021/08/14 00:03:57;;;;;;;5.63;4.35;;;18.90;85.70;;;;;;6271215;22;20000;-93
2021/08/14 00:06:22;;;;;;;5.45;3.88;;;18.90;85.90;;;;;;6270039;22;19999;-94
2021/08/14 00:08:48;;;;;;;5.55;3.80;;;18.80;85.90;;;;;;6297629;22;20003;-93
2021/08/14 00:11:14;;;;;;;7.05;4.95;;;18.80;86.30;;;;;;6271747;22;20025;-93
2021/08/14 00:13:40;;;;;;;6.45;4.95;;;18.70;86.30;;;;;;6271011;22;20390;-93
2021/08/14 00:16:06;;;;;;;6.07;5.03;;;18.70;86.50;;;;;;6297402;22;20026;-93
2021/08/14 00:18:32;;;;;;;7.57;4.80;;;18.70;86.60;;;;;;6272548;22;20022;-93
2021/08/14 00:20:58;;;;;;;5.50;4.50;;;18.60;86.80;;;;;;6273397;22;20004;-94
2021/08/14 00:23:23;;;;;;;5.75;4.50;;;18.60;86.80;;;;;;6297628;22;20000;-93
2021/08/14 00:25:49;;;;;;;5.88;4.60;;;18.50;87.00;;;;;;6271238;22;20023;-93
2021/08/14 00:28:15;;;;;;;6.35;5.05;;;18.50;87.10;;;;;;6270273;22;20063;-94
2021/08/14 00:30:41;;;;;;;5.55;4.50;;;18.50;87.20;;;;;;6271244;22;20007;-94
2021/08/14 00:33:07;;;;;;;6.10;4.03;;;18.40;87.40;;;;;;6271874;22;19999;-94
2021/08/14 00:35:33;;;;;;;6.50;4.78;;;18.40;88.00;;;;;;6271659;22;20004;-93
2021/08/14 00:37:59;;;;;;;6.20;4.70;;;18.40;87.70;;;;;;6271525;22;20063;-93
2021/08/14 00:40:25;;;;;;;7.13;5.00;;;18.40;87.80;;;;;;6274021;22;20007;-93
2021/08/14 00:42:50;;;;;;;5.68;4.70;;;18.40;88.10;;;;;;6274184;22;19999;-93
2021/08/14 00:45:16;;;;;;;8.57;5.13;;;18.30;88.40;;;;;;6274699;22;20027;-93
2021/08/14 00:47:43;;;;;;;6.70;4.72;;;18.30;88.50;;;;;;6272076;22;20000;-93
2021/08/14 00:50:11;;;;;;;6.45;5.32;;;18.30;88.60;;;;;;6271486;22;20010;-94
2021/08/14 00:52:37;;;;;;;6.00;4.88;;;18.30;88.90;;;;;;6297284;22;20311;-92
2021/08/14 00:55:04;;;;;;;5.63;4.55;;;18.20;89.20;;;;;;6270300;22;20010;-94
2021/08/14 00:57:30;;;;;;;6.93;4.75;;;18.20;89.60;;;;;;6269841;22;19995;-93
2021/08/14 00:59:56;;;;;;;7.30;5.72;;;18.20;90.00;;;;;;6268929;22;20011;-93
2021/08/14 01:02:22;;;;;;;6.93;5.70;;;18.20;90.10;;;;;;6265517;23;20079;-92
2021/08/14 01:04:50;;;;;;;6.97;5.45;;;18.20;90.20;;;;;;6271719;22;20336;-92
2021/08/14 01:07:18;;;;;;;6.53;5.30;;;18.20;90.20;;;;;;6275983;22;19991;-90
2021/08/14 01:09:45;;;;;;;7.03;5.35;;;18.20;90.20;;;;;;6275795;22;20004;-91
2021/08/14 01:12:13;;;;;;;6.50;5.18;;;18.20;90.30;;;;;;6275739;22;20004;-91
2021/08/14 01:14:40;;;;;;;7.35;5.82;;;18.20;90.40;;;;;;6276012;22;19999;-90
2021/08/14 01:17:06;;;;;;;10.23;5.88;;;18.10;90.50;;;;;;6297119;22;19992;-93
2021/08/14 01:19:32;;;;;;;10.00;6.07;;;18.10;90.60;;;;;;6270390;22;20003;-94
2021/08/14 01:21:58;;;;;;;7.03;5.47;;;18.10;90.60;;;;;;6271589;22;20018;-94
2021/08/14 01:24:24;;;;;;;7.50;5.68;;;18.00;90.60;;;;;;6270031;22;20031;-93
2021/08/14 01:26:50;;;;;;;6.50;4.95;;;18.00;90.60;;;;;;6270384;22;20000;-93
2021/08/14 01:29:16;;;;;;;7.90;5.57;;;18.00;90.70;;;;;;6297786;22;20003;-92
2021/08/14 01:31:43;;;;;;;6.10;4.93;;;18.00;90.80;;;;;;6271316;22;20019;-93
2021/08/14 01:34:10;;;;;;;8.13;5.95;;;17.90;91.10;;;;;;6297043;22;20026;-93
2021/08/14 01:36:36;;;;;;;6.00;5.18;;;17.90;91.10;;;;;;6270671;22;20004;-93
2021/08/14 01:39:04;;;;;;;7.78;5.85;;;17.90;91.10;;;;;;6295952;22;19999;-93
2021/08/14 01:41:30;;;;;;;6.40;5.75;;;17.80;91.20;;;;;;6270760;22;20003;-93
2021/08/14 01:44:02;;;;;;;6.57;5.35;;;17.80;91.50;;;;;;6300088;22;20007;-93
2021/08/14 01:46:31;;;;;;;7.32;5.85;;;17.80;91.50;;;;;;6275359;22;20000;-93
2021/08/14 01:48:57;;;;;;;7.10;5.93;;;17.70;91.70;;;;;;6276309;22;19984;-93
2021/08/14 01:51:23;;;;;;;8.05;6.25;;;17.80;91.90;;;;;;6273748;22;20012;-92
2021/08/14 01:53:54;;;;;;;6.65;5.95;;;17.70;92.10;;;;;;6275119;22;19988;-93
2021/08/14 01:56:21;;;;;;;6.95;5.47;;;17.70;92.00;;;;;;6271901;22;20030;-93
2021/08/14 01:58:47;;;;;;;7.38;5.82;;;17.70;92.00;;;;;;6295639;22;20023;-93
2021/08/14 02:01:13;;;;;;;7.80;5.68;;;17.70;92.00;;;;;;6267603;22;20028;-93
2021/08/14 02:03:39;;;;;;;7.70;5.47;;;17.70;92.10;;;;;;6267920;22;20007;-93
2021/08/14 02:06:08;;;;;;;8.65;6.20;;;17.70;92.20;;;;;;6267004;22;19999;-93
2021/08/14 02:08:35;;;;;;;7.10;5.72;;;17.60;92.40;;;;;;6293527;22;19995;-93
2021/08/14 02:11:03;;;;;;;6.85;5.32;;;17.60;92.60;;;;;;6267683;22;20026;-92
2021/08/14 02:13:31;;;;;;;7.82;6.53;;;17.60;92.60;;;;;;6294313;22;19992;-93
2021/08/14 02:15:57;;;;;;;7.95;6.38;;;17.60;92.70;;;;;;6294986;22;20019;-92
2021/08/14 02:18:23;;;;;;;8.23;6.32;;;17.60;92.90;;;;;;6294387;22;20003;-93
2021/08/14 02:20:49;;;;;;;7.45;5.88;;;17.60;92.90;;;;;;6268280;22;20004;-93
2021/08/14 02:23:14;;;;;;;8.05;6.32;;;17.60;93.20;;;;;;6295302;22;20151;-93
2021/08/14 02:25:40;;;;;;;10.23;7.10;;;17.60;93.30;;;;;;6268862;22;20007;-93
2021/08/14 02:28:06;;;;;;;8.23;6.82;;;17.60;93.80;;;;;;6266936;22;20055;-94
2021/08/14 02:30:32;;;;;;;9.20;7.55;;;17.60;93.70;;;;;;6292832;22;19999;-93
2021/08/14 02:32:58;;;;;;;9.60;7.05;;;17.60;93.90;;;;;;6292900;22;20003;-93
2021/08/14 02:35:23;;;;;;;9.57;6.68;;;17.60;93.90;;;;;;6266027;22;20034;-93
2021/08/14 02:37:50;;;;;;;8.02;7.15;;;17.50;93.90;;;;;;6265722;22;20000;-93
2021/08/14 02:40:16;;;;;;;8.73;7.05;;;17.60;94.30;;;;;;6265427;22;20049;-93
2021/08/14 02:42:43;;;;;;;9.15;7.10;;;17.60;94.30;;;;;;6265617;22;20400;-93
2021/08/14 02:45:10;;;;;;;9.55;7.10;;;17.60;94.50;;;;;;6267034;22;20054;-93
2021/08/14 02:47:36;;;;;;;8.93;7.45;;;17.50;94.60;;;;;;6266136;22;19995;-93
2021/08/14 02:50:03;;;;;;;8.45;6.38;;;17.60;94.80;;;;;;6267419;22;19996;-93
2021/08/14 02:52:29;;;;;;;10.30;7.60;;;17.60;94.80;;;;;;6293810;22;20055;-93
2021/08/14 02:54:55;;;;;;;7.30;6.25;;;17.50;95.10;;;;;;6300675;22;19992;-91
2021/08/14 02:57:20;;;;;;;11.57;6.60;;;17.50;94.80;;;;;;6274630;22;19988;-91
2021/08/14 02:59:46;;;;;;;7.65;6.53;;;17.50;94.90;;;;;;6303073;22;19996;-91
2021/08/14 03:02:12;;;;;;;7.32;6.03;;;17.50;94.90;;;;;;6277226;22;20019;-92
2021/08/14 03:04:38;;;;;;;8.50;6.65;;;17.50;94.90;;;;;;6301480;22;20004;-94
2021/08/14 03:07:04;;;;;;;8.82;7.68;;;17.50;94.90;;;;;;6272579;22;20007;-92
2021/08/14 03:09:30;;;;;;;10.23;7.78;;;17.50;95.40;;;;;;6269996;22;20023;-93
2021/08/14 03:11:55;;;;;;;9.48;7.90;;;17.50;95.50;;;;;;6268523;22;20008;-93
2021/08/14 03:14:21;;;;;;;10.38;9.27;;;17.50;95.60;;;;;;6294975;22;19996;-94
2021/08/14 03:16:47;;;;;;;11.18;8.85;;;17.50;95.90;;;;;;6270188;22;20004;-94
2021/08/14 03:19:13;;;;;;;10.93;8.70;;;17.50;96.00;;;;;;6269485;22;20018;-94
2021/08/14 03:21:38;;;;;;;10.85;8.95;;;17.60;96.10;;;;;;6294584;22;20000;-94
2021/08/14 03:24:04;;;;;;;9.23;7.57;;;17.60;96.20;;;;;;6269961;22;20004;-92
2021/08/14 03:26:30;;;;;;;10.35;7.97;;;17.60;96.00;;;;;;6270537;22;20000;-93
2021/08/14 03:28:56;;;;;;;9.85;7.47;;;17.60;96.30;;;;;;6269485;22;19996;-92
2021/08/14 03:31:22;;;;;;;9.65;8.13;;;17.60;96.10;;;;;;6294597;22;19995;-93
2021/08/14 03:33:48;;;;;;;16.40;9.35;;;17.60;96.20;;;;;;6266648;22;20004;-93
2021/08/14 03:36:15;;;;;;;10.23;8.45;;;17.60;96.50;;;;;;6266036;22;20015;-93
2021/08/14 03:38:41;;;;;;;9.65;7.57;;;17.70;96.40;;;;;;6293635;22;20000;-93
2021/08/14 03:41:08;;;;;;;10.35;7.97;;;17.70;96.30;;;;;;6293027;22;19999;-93
2021/08/14 03:43:35;;;;;;;10.57;7.72;;;17.70;96.30;;;;;;6269983;22;20015;-93
2021/08/14 03:46:02;;;;;;;9.07;7.38;;;17.70;96.40;;;;;;6272255;22;20004;-93
2021/08/14 03:48:28;;;;;;;10.25;7.20;;;17.80;96.20;;;;;;6273820;22;19996;-92
2021/08/14 03:50:54;;;;;;;9.35;7.38;;;17.80;96.10;;;;;;6296615;22;20030;-93
2021/08/14 03:53:19;;;;;;;8.15;7.28;;;17.90;96.00;;;;;;6298463;22;20427;-93
2021/08/14 03:55:45;;;;;;;9.25;7.28;;;18.00;96.00;;;;;;6297139;22;19991;-93
2021/08/14 03:58:11;;;;;;;8.10;6.75;;;18.10;95.90;;;;;;6270886;22;20000;-93
2021/08/14 04:00:37;;;;;;;9.55;8.07;;;18.10;95.80;;;;;;6269069;22;20012;-92
2021/08/14 04:03:03;;;;;;;8.30;7.45;;;18.20;95.70;;;;;;6269845;22;20006;-93
2021/08/14 04:05:29;;;;;;;9.10;7.30;;;18.20;95.80;;;;;;6273808;22;20003;-93
2021/08/14 04:07:55;;;;;;;9.65;7.88;;;18.30;95.40;;;;;;6271776;22;20000;-93
2021/08/14 04:10:21;;;;;;;8.23;7.28;;;18.30;95.40;;;;;;6270985;22;20027;-93
2021/08/14 04:12:49;;;;;;;9.25;7.07;;;18.40;95.30;;;;;;6270344;22;19996;-92
2021/08/14 04:15:15;;;;;;;8.43;6.90;;;18.50;95.20;;;;;;6269869;22;19995;-93
2021/08/14 04:17:43;;;;;;;11.48;8.13;;;18.50;95.00;;;;;;6269520;22;20006;-93
2021/08/14 04:20:09;;;;;;;9.15;7.65;;;18.60;95.00;;;;;;6269458;22;20048;-93
2021/08/14 04:22:35;;;;;;;10.40;7.65;;;18.60;94.90;;;;;;6269963;22;20004;-93
2021/08/14 04:25:02;;;;;;;7.65;6.80;;;18.70;94.80;;;;;;6268111;22;20010;-93
2021/08/14 04:27:28;;;;;;;9.05;6.10;;;18.70;94.80;;;;;;6269490;22;20027;-93
2021/08/14 04:29:53;;;;;;;7.97;6.30;;;18.80;94.60;;;;;;6300006;22;20022;-93
2021/08/14 04:32:19;;;;;;;7.25;5.85;;;18.90;94.50;;;;;;6274943;22;20008;-92
2021/08/14 04:34:45;;;;;;;6.32;5.10;;;18.90;94.30;;;;;;6273514;22;20023;-92
2021/08/14 04:37:13;;;;;;;8.98;6.22;;;19.00;94.00;;;;;;6271515;22;20002;-93
2021/08/14 04:39:39;;;;;;;7.50;6.05;;;19.10;93.70;;;;;;6271444;22;20008;-92
2021/08/14 04:42:05;;;;;;;6.25;5.10;;;19.30;93.20;;;;;;6271253;22;20004;-92
2021/08/14 04:44:32;;;;;;;9.55;5.20;;;19.30;92.90;;;;;;6276443;22;19998;-90
2021/08/14 04:47:00;;;;;;;7.95;5.82;;;19.50;92.70;;;;;;6276115;22;20003;-91
2021/08/14 04:49:26;;;;;;;5.97;5.28;;;19.50;92.50;;;;;;6277227;22;20003;-91
2021/08/14 04:51:52;;;;;;;5.05;4.45;;;19.60;92.10;;;;;;6277533;22;20019;-90
2021/08/14 04:54:18;;;;;;;7.03;5.07;;;19.70;92.00;;;;;;6274961;22;20007;-92
2021/08/14 04:56:43;;;;;;;5.05;4.18;;;19.80;91.90;;;;;;6264729;22;20000;-94
2021/08/14 04:59:09;;;;;;;6.18;4.82;;;19.90;91.80;;;;;;6268044;22;19996;-94
2021/08/14 05:01:35;;;;;;;6.35;4.40;;;20.00;91.30;;;;;;6295074;22;20054;-94
2021/08/14 05:04:01;;;;;;;6.13;4.97;;;20.00;90.90;;;;;;6269849;22;19999;-93
2021/08/14 05:06:27;;;;;;;7.18;4.50;;;20.10;90.80;;;;;;6268425;22;20004;-92
2021/08/14 05:08:53;;;;;;;5.90;4.70;;;20.10;90.80;;;;;;6297518;22;19992;-92
2021/08/14 05:11:19;;;;;;;6.90;4.55;;;20.20;90.80;;;;;;6274346;22;20073;-93
2021/08/14 05:13:45;;;;;;;4.68;4.18;;;20.30;90.60;;;;;;6297153;22;19990;-93
2021/08/14 05:16:10;;;;;;;5.53;4.53;;;20.40;90.50;;;;;;6298287;22;19979;-93
2021/08/14 05:18:36;;;;;;;5.68;4.80;;;20.50;90.20;;;;;;6297030;22;19996;-93
2021/08/14 05:21:02;;;;;;;9.00;5.10;;;20.60;90.00;;;;;;6294665;22;20064;-93
2021/08/14 05:23:28;;;;;;;8.45;4.18;;;20.60;89.40;;;;;;6296848;22;20323;-93
2021/08/14 05:25:54;;;;;;;5.57;4.55;;;20.60;89.50;;;;;;6271861;22;20054;-93
2021/08/14 05:28:21;;;;;;;5.07;4.05;;;20.70;89.60;;;;;;6299474;22;20019;-93
2021/08/14 05:30:47;;;;;;;5.53;4.65;;;20.70;88.70;;;;;;6299856;22;20003;-93
2021/08/14 05:33:13;;;;;;;6.15;5.35;;;20.80;87.40;;;;;;6272850;22;20035;-92
2021/08/14 05:35:39;;;;;;;7.35;4.50;;;20.80;86.90;;;;;;6273136;22;20027;-92
2021/08/14 05:38:04;;;;;;;5.95;4.63;;;20.80;86.90;;;;;;6300732;22;20042;-93
2021/08/14 05:40:30;;;;;;;5.65;4.47;;;20.90;87.00;;;;;;6273004;22;20004;-93
2021/08/14 05:42:56;;;;;;;4.63;3.75;;;21.00;87.10;;;;;;6274122;22;20004;-94
2021/08/14 05:45:22;;;;;;;4.75;4.18;;;21.10;86.80;;;;;;6272903;22;20003;-93
2021/08/14 05:47:48;;;;;;;5.65;4.18;;;21.20;86.00;;;;;;6272429;22;20000;-94
2021/08/14 05:50:14;;;;;;;5.38;4.00;;;21.40;85.50;;;;;;6269396;22;20003;-94
2021/08/14 05:52:40;;;;;;;4.30;3.80;;;21.40;85.00;;;;;;6272055;22;20086;-93
2021/08/14 05:55:05;;;;;;;4.22;3.03;;;21.50;85.00;;;;;;6270645;22;19987;-94
2021/08/14 05:57:31;;;;;;;4.30;3.65;;;21.80;84.20;;;;;;6286936;22;19996;-94
2021/08/14 05:59:57;;;;;;;5.68;3.42;;;21.90;83.30;;;;;;6261725;22;20003;-93
2021/08/14 06:02:22;;;;;;;5.20;3.80;;;22.10;83.00;;;;;;6257450;22;20019;-93
2021/08/14 06:04:48;;;;;;;5.43;4.07;;;22.20;82.30;;;;;;6261947;22;20027;-93
2021/08/14 06:07:14;;;;;;;5.18;3.80;;;22.20;81.80;;;;;;6255670;22;20019;-93
2021/08/14 06:09:39;;;;;;;6.10;4.00;;;22.20;81.30;;;;;;6259271;22;20538;-93
2021/08/14 06:12:05;;;;;;;5.47;4.22;;;22.30;81.50;;;;;;6257410;22;20078;-93
2021/08/14 06:14:32;;;;;;;3.95;3.22;;;22.40;81.30;;;;;;6257897;22;20449;-93
2021/08/14 06:16:57;;;;;;;3.97;3.38;;;22.40;81.20;;;;;;6261064;22;19996;-93
2021/08/14 06:19:25;;;;;;;4.28;3.72;;;22.60;80.20;;;;;;6262435;22;20308;-93
2021/08/14 06:21:50;;;;;;;3.88;3.47;;;22.60;79.30;;;;;;6288943;22;20328;-92
2021/08/14 06:24:16;;;;;;;3.50;3.08;;;22.70;78.80;;;;;;6261061;22;20008;-93
2021/08/14 06:26:42;;;;;;;4.55;3.22;;;22.70;78.50;;;;;;6287536;22;19995;-93
2021/08/14 06:29:07;;;;;;;3.85;3.22;;;22.70;78.40;;;;;;6285315;22;20322;-93
2021/08/14 06:31:33;;;;;;;6.53;4.43;;;22.70;78.30;;;;;;6287438;22;20008;-93
2021/08/14 06:33:59;;;;;;;3.80;3.40;;;22.80;77.50;;;;;;6284431;22;20074;-94
2021/08/14 06:36:25;;;;;;;4.95;3.83;;;22.80;76.50;;;;;;6263490;22;20008;-92
2021/08/14 06:38:50;;;;;;;4.25;3.55;;;22.90;76.80;;;;;;6291955;22;20011;-93
2021/08/14 06:41:16;;;;;;;4.35;3.88;;;22.90;76.50;;;;;;6298100;22;20011;-91
2021/08/14 06:43:42;;;;;;;4.63;4.05;;;22.90;75.70;;;;;;6274326;22;20003;-92
2021/08/14 06:46:07;;;;;;;4.85;3.70;;;22.80;75.80;;;;;;6264521;22;20008;-93
2021/08/14 06:48:35;;;;;;;3.78;3.40;;;22.90;76.20;;;;;;6264928;22;19999;-93
2021/08/14 06:51:01;;;;;;;6.05;4.13;;;23.10;75.40;;;;;;6267930;22;20091;-90
2021/08/14 06:53:27;;;;;;;4.15;3.63;;;23.20;74.90;;;;;;6298347;22;19999;-91
2021/08/14 06:55:53;;;;;;;4.40;3.85;;;23.20;74.90;;;;;;6273430;22;20027;-90
2021/08/14 06:58:18;;;;;;;4.55;3.97;;;23.30;74.50;;;;;;6271039;22;20004;-92
2021/08/14 07:00:44;;;;;;;4.05;3.30;;;23.30;74.70;;;;;;6270520;22;20011;-93
2021/08/14 07:03:10;;;;;;;5.57;4.18;;;23.40;73.70;;;;;;6273575;22;20000;-93
2021/08/14 07:05:39;;;;;;;4.25;3.85;;;23.30;72.40;;;;;;6273704;22;20015;-92
2021/08/14 07:08:05;;;;;;;3.55;3.13;;;23.30;73.20;;;;;;6274770;22;20011;-92
2021/08/14 07:10:31;;;;;;;4.03;3.50;;;23.50;73.40;;;;;;6301403;22;20017;-93
2021/08/14 07:12:57;;;;;;;3.75;3.45;;;23.70;72.90;;;;;;6297336;22;19992;-93
2021/08/14 07:15:23;;;;;;;3.20;2.90;;;23.90;72.00;;;;;;6266507;22;20000;-94
2021/08/14 07:17:49;;;;;;;4.75;3.90;;;24.00;71.10;;;;;;6294842;22;19996;-93
2021/08/14 07:20:14;;;;;;;3.65;3.30;;;24.00;70.70;;;;;;6294183;22;20050;-93
2021/08/14 07:22:40;;;;;;;3.60;3.30;;;24.10;70.30;;;;;;6261916;22;20026;-94
2021/08/14 07:25:06;;;;;;;5.60;3.83;;;24.00;69.70;;;;;;6259828;22;20000;-93
2021/08/14 07:27:32;;;;;;;4.00;3.53;;;24.00;69.60;;;;;;6260699;22;20050;-94
2021/08/14 07:29:57;;;;;;;3.50;2.97;;;23.90;69.60;;;;;;6262269;22;20000;-94
2021/08/14 07:32:23;;;;;;;4.80;3.70;;;23.90;69.70;;;;;;6264098;22;20091;-91
2021/08/14 07:34:49;;;;;;;4.13;3.00;;;23.80;70.00;;;;;;6265635;22;20004;-90
2021/08/14 07:37:14;;;;;;;3.45;3.15;;;23.90;70.40;;;;;;6267797;22;20327;-92
2021/08/14 07:39:40;;;;;;;3.97;3.38;;;24.10;70.50;;;;;;6270342;22;20004;-92
2021/08/14 07:42:06;;;;;;;4.13;3.38;;;24.20;70.20;;;;;;6268771;22;20026;-92
2021/08/14 07:44:31;;;;;;;3.75;2.97;;;24.40;69.70;;;;;;6266614;22;20008;-93
2021/08/14 07:46:57;;;;;;;3.65;3.17;;;24.50;69.40;;;;;;6293523;22;20065;-93
2021/08/14 07:49:23;;;;;;;3.97;3.53;;;24.60;68.90;;;;;;6258118;22;20004;-93
2021/08/14 07:51:49;;;;;;;4.25;3.53;;;24.70;68.10;;;;;;6259238;22;20005;-93
2021/08/14 07:54:17;;;;;;;4.10;3.40;;;24.70;67.60;;;;;;6262035;22;20319;-93
2021/08/14 07:56:43;;;;;;;4.18;3.33;;;24.70;67.70;;;;;;6287475;22;20019;-93
2021/08/14 07:59:09;;;;;;;4.65;3.45;;;24.60;67.40;;;;;;6261056;22;20411;-93
2021/08/14 08:01:35;;;;;;;4.68;3.25;;;24.60;67.30;;;;;;6285852;22;20023;-93
2021/08/14 08:04:00;;;;;;;5.63;3.58;;;24.70;67.40;;;;;;6288420;22;19992;-93
2021/08/14 08:06:26;;;;;;;4.40;3.90;;;24.70;67.30;;;;;;6257055;22;20004;-92
2021/08/14 08:08:52;;;;;;;7.40;4.00;;;24.70;66.40;;;;;;6260657;22;20018;-92
2021/08/14 08:11:17;;;;;;;4.50;3.58;;;24.70;66.40;;;;;;6291752;22;19999;-94
2021/08/14 08:13:43;;;;;;;3.92;3.50;;;24.70;66.30;;;;;;6292497;22;20015;-94
2021/08/14 08:16:09;;;;;;;4.00;3.60;;;24.80;66.60;;;;;;6265544;22;20007;-93
2021/08/14 08:18:35;;;;;;;4.00;3.63;;;24.90;66.30;;;;;;6294314;22;20075;-93
2021/08/14 08:21:00;;;;;;;4.28;3.45;;;25.00;66.20;;;;;;6265863;22;20038;-93
2021/08/14 08:23:26;;;;;;;4.30;3.70;;;25.10;65.90;;;;;;6295577;22;20000;-93
2021/08/14 08:25:52;;;;;;;3.88;3.47;;;25.20;65.20;;;;;;6270155;22;20007;-93
2021/08/14 08:28:24;;;;;;;3.75;3.30;;;25.20;64.60;;;;;;6298071;22;19999;-93
2021/08/14 08:30:50;;;;;;;4.25;3.20;;;25.20;63.20;;;;;;6269287;22;19995;-93
2021/08/14 08:33:16;;;;;;;3.55;3.15;;;25.20;64.40;;;;;;6269917;22;20027;-93
2021/08/14 08:35:42;;;;;;;3.83;3.40;;;25.30;64.30;;;;;;6267312;22;19996;-93
2021/08/14 08:38:08;;;;;;;3.42;3.13;;;25.30;63.80;;;;;;6267934;22;20004;-93
2021/08/14 08:40:42;;;;;;;3.78;3.10;;;25.30;64.00;;;;;;6272789;22;20078;-91
2021/08/14 08:43:08;;;;;;;4.03;3.55;;;25.40;63.60;;;;;;6301670;22;20004;-92
2021/08/14 08:45:36;;;;;;;5.78;3.40;;;25.40;62.90;;;;;;6301501;22;19996;-92
2021/08/14 08:48:09;;;;;;;3.25;2.95;;;25.40;63.00;;;;;;6275954;22;20002;-91
2021/08/14 08:50:38;;;;;;;4.28;3.58;;;25.40;63.10;;;;;;6302152;22;20044;-92
2021/08/14 08:53:04;;;;;;;3.70;3.13;;;25.40;61.20;;;;;;6263500;22;20061;-92
2021/08/14 08:55:32;;;;;;;3.92;3.50;;;25.40;60.40;;;;;;6257278;22;20004;-92
2021/08/14 08:57:59;;;;;;;4.40;3.55;;;25.30;60.90;;;;;;6253358;22;20425;-91
2021/08/14 09:00:25;;;;;;;3.80;3.35;;;25.30;61.20;;;;;;6253233;22;20016;-92
2021/08/14 09:03:24;;;;;;;3.92;3.20;;;25.40;60.90;;;;;;6249848;22;20076;-92
2021/08/14 09:05:54;;;;;;;3.47;3.17;;;25.50;60.50;;;;;;6251619;22;20004;-92
2021/08/14 09:08:20;;;;;;;5.63;3.00;;;25.60;59.30;;;;;;6251307;22;20007;-93
2021/08/14 09:10:50;;;;;;;4.65;3.40;;;25.60;58.90;;;;;;6251201;22;19996;-92
2021/08/14 09:13:25;;;;;;;3.55;3.08;;;25.60;58.90;;;;;;6251714;22;20022;-92
2021/08/14 09:15:51;;;;;;;3.30;3.00;;;25.70;58.80;;;;;;6251481;22;19996;-92
2021/08/14 09:18:17;;;;;;;3.45;2.80;;;25.70;58.90;;;;;;6279252;22;20070;-92
2021/08/14 09:20:54;;;;;;;4.18;3.03;;;25.90;59.20;;;;;;6250990;22;20011;-92
2021/08/14 09:23:24;;;;;;;3.20;2.80;;;26.00;58.10;;;;;;6278660;22;20004;-91
2021/08/14 09:25:51;;;;;;;3.03;2.72;;;26.10;58.40;;;;;;6251094;22;19996;-90
2021/08/14 09:28:26;;;;;;;3.75;3.20;;;26.10;58.10;;;;;;6251089;22;19999;-91
2021/08/14 09:30:57;;;;;;;2.80;2.58;;;26.20;58.40;;;;;;6278783;22;20418;-92
2021/08/14 09:33:27;;;;;;;3.28;2.97;;;26.30;58.60;;;;;;6250875;22;20004;-92
2021/08/14 09:35:56;;;;;;;3.83;3.42;;;26.30;58.00;;;;;;6278961;22;19999;-93
2021/08/14 09:38:23;;;;;;;4.85;3.53;;;26.30;56.50;;;;;;6252725;22;20003;-92
2021/08/14 09:40:52;;;;;;;3.60;2.95;;;26.20;56.10;;;;;;6278349;22;19999;-92
2021/08/14 09:43:33;;;;;;;3.42;2.78;;;26.20;56.40;;;;;;6278842;22;20003;-92
2021/08/14 09:45:59;;;;;;;3.80;3.20;;;26.20;56.80;;;;;;6251723;22;20007;-92
2021/08/14 09:48:26;;;;;;;4.03;3.63;;;26.30;56.90;;;;;;6251349;22;20312;-92
2021/08/14 09:50:52;;;;;;;3.88;2.88;;;26.30;56.00;;;;;;6251520;22;20031;-91
2021/08/14 09:53:20;;;;;;;4.40;3.20;;;26.30;55.70;;;;;;6250922;22;20012;-92
2021/08/14 09:55:50;;;;;;;4.35;3.80;;;26.30;55.30;;;;;;6251114;22;20019;-92
2021/08/14 09:58:20;;;;;;;3.30;3.00;;;26.30;54.80;;;;;;6252063;22;20004;-91
2021/08/14 10:00:52;;;;;;;5.32;3.10;;;26.30;55.00;;;;;;6250501;22;20094;-91
2021/08/14 10:03:18;;;;;;;3.90;3.42;;;26.30;55.30;;;;;;6251793;22;20052;-92
2021/08/14 10:05:45;;;;;;;3.67;3.30;;;26.40;54.60;;;;;;6251530;22;20019;-91
2021/08/14 10:08:11;;;;;;;4.07;3.40;;;26.50;54.20;;;;;;6252312;22;20000;-91
2021/08/14 10:10:38;;;;;;;4.47;3.03;;;26.50;54.20;;;;;;6251072;22;20014;-92
2021/08/14 10:13:04;;;;;;;3.75;2.85;;;26.50;54.60;;;;;;6251340;22;20034;-91
2021/08/14 10:15:31;;;;;;;3.58;3.22;;;26.60;54.70;;;;;;6278536;22;20038;-91
2021/08/14 10:17:57;;;;;;;3.33;2.53;;;26.60;54.60;;;;;;6250873;22;20022;-91
2021/08/14 10:20:27;;;;;;;4.85;3.25;;;26.70;54.70;;;;;;6250821;22;20004;-92
2021/08/14 10:23:08;;;;;;;4.53;3.30;;;26.80;53.90;;;;;;6278301;22;20054;-92
2021/08/14 10:25:36;;;;;;;4.30;2.97;;;26.80;52.00;;;;;;6278592;22;20000;-91
2021/08/14 10:28:07;;;;;;;3.25;2.95;;;26.80;53.70;;;;;;6251019;22;20006;-91
2021/08/14 10:30:46;;;;;;;3.13;2.83;;;26.80;53.80;;;;;;6250740;22;20004;-91
2021/08/14 10:33:27;;;;;;;3.00;2.60;;;26.90;53.70;;;;;;6277783;22;19992;-91
2021/08/14 10:35:56;;;;;;;4.13;2.92;;;27.00;53.70;;;;;;6278608;22;19991;-91
2021/08/14 10:38:39;;;;;;;3.95;2.63;;;27.20;53.70;;;;;;6251853;22;20074;-91
2021/08/14 10:41:06;;;;;;;3.67;2.95;;;27.20;52.00;;;;;;6278898;22;20007;-91
2021/08/14 10:43:53;;;;;;;3.05;2.75;;;27.30;53.20;;;;;;6279793;22;20012;-91
2021/08/14 10:46:41;;;;;;;4.90;3.45;;;27.30;52.60;;;;;;6233081;22;20031;-91
2021/08/14 10:49:12;;;;;;;2.75;2.53;;;27.30;51.90;;;;;;6283078;22;20031;-91
2021/08/14 10:52:01;;;;;;;3.47;2.92;;;27.40;52.70;;;;;;6257447;22;20030;-91
2021/08/14 10:54:30;;;;;;;2.92;2.47;;;27.40;50.20;;;;;;6267579;22;19999;-91
2021/08/14 10:57:04;;;;;;;4.90;2.83;;;27.40;51.80;;;;;;6255568;22;20008;-91
2021/08/14 10:59:37;;;;;;;4.88;3.13;;;27.40;52.00;;;;;;6281105;22;20473;-91
2021/08/14 11:02:12;;;;;;;3.47;3.17;;;27.40;52.00;;;;;;6253178;22;20130;-91
2021/08/14 11:04:41;;;;;;;3.22;2.88;;;27.40;50.90;;;;;;6252823;22;20015;-91
2021/08/14 11:07:19;;;;;;;3.10;2.80;;;27.40;51.70;;;;;;6257146;22;20030;-92
2021/08/14 11:09:54;;;;;;;3.15;2.78;;;27.50;51.40;;;;;;6254587;22;20008;-91
2021/08/14 11:12:42;;;;;;;4.28;3.15;;;27.50;51.70;;;;;;6255377;22;20011;-91
2021/08/14 11:15:23;;;;;;;3.40;2.50;;;27.50;50.90;;;;;;6256742;22;20357;-89
2021/08/14 11:17:57;;;;;;;3.38;2.88;;;27.60;51.20;;;;;;6251026;22;20028;-90
2021/08/14 11:20:30;;;;;;;3.45;2.67;;;27.60;50.60;;;;;;6251693;22;20004;-89
2021/08/14 11:22:58;;;;;;;3.08;2.80;;;27.70;51.20;;;;;;6278765;22;20000;-89
2021/08/14 11:25:27;;;;;;;3.78;2.92;;;27.70;50.90;;;;;;6251977;22;20007;-89
2021/08/14 11:28:06;;;;;;;3.63;2.85;;;27.70;50.30;;;;;;6252083;22;20680;-91
2021/08/14 11:30:36;;;;;;;2.65;2.45;;;27.80;50.30;;;;;;6279064;22;19998;-90
2021/08/14 11:33:05;;;;;;;2.85;2.65;;;27.80;50.60;;;;;;6251785;22;20086;-90
2021/08/14 11:35:32;;;;;;;3.47;2.72;;;27.90;50.50;;;;;;6279194;22;20003;-90
2021/08/14 11:38:03;;;;;;;4.50;2.88;;;27.90;50.20;;;;;;6278906;22;20083;-90
2021/08/14 11:40:32;;;;;;;3.75;3.10;;;28.00;49.90;;;;;;6279822;22;20071;-90
2021/08/14 11:43:01;;;;;;;3.28;3.03;;;27.90;48.30;;;;;;6251801;22;20415;-91
2021/08/14 11:45:34;;;;;;;3.13;2.80;;;27.80;48.60;;;;;;6279743;22;20074;-90
2021/08/14 11:48:02;;;;;;;3.08;2.78;;;27.80;48.20;;;;;;6252647;22;20055;-90
2021/08/14 11:50:43;;;;;;;2.75;2.55;;;27.80;49.00;;;;;;6251549;22;20004;-90
2021/08/14 11:53:10;;;;;;;4.00;3.08;;;27.80;48.10;;;;;;6250387;22;20011;-89
2021/08/14 11:55:37;;;;;;;3.70;2.63;;;27.80;48.50;;;;;;6250428;22;20007;-90
2021/08/14 11:58:03;;;;;;;4.25;3.10;;;27.80;48.20;;;;;;6278145;22;20074;-90
2021/08/14 12:00:38;;;;;;;3.42;2.78;;;27.80;48.00;;;;;;6250642;22;20088;-90
2021/08/14 12:03:08;;;;;;;2.78;2.40;;;27.80;47.70;;;;;;6250964;22;20443;-90
2021/08/14 12:05:42;;;;;;;3.47;2.90;;;27.80;48.10;;;;;;6277604;22;20066;-91
2021/08/14 12:08:09;;;;;;;2.60;2.40;;;27.80;48.10;;;;;;6277725;22;20074;-91
2021/08/14 12:10:36;;;;;;;3.72;2.80;;;27.80;48.40;;;;;;6250518;22;20003;-91
2021/08/14 12:13:04;;;;;;;2.58;2.38;;;28.00;48.50;;;;;;6277558;22;20335;-91
2021/08/14 12:15:39;;;;;;;2.80;2.50;;;28.20;48.40;;;;;;6276961;22;20446;-90
2021/08/14 12:18:05;;;;;;;4.20;2.53;;;28.40;48.30;;;;;;6250526;22;20004;-91
2021/08/14 12:20:33;;;;;;;2.53;2.28;;;28.50;48.00;;;;;;6250827;22;20485;-90
2021/08/14 12:23:18;;;;;;;5.25;3.40;;;28.70;47.80;;;;;;6277617;22;20411;-90
2021/08/14 12:25:55;;;;;;;3.85;3.00;;;29.00;46.10;;;;;;6277447;22;19992;-90
2021/08/14 12:28:35;;;;;;;4.03;2.95;;;29.10;46.00;;;;;;6250614;22;20146;-90
2021/08/14 12:31:19;;;;;;;3.58;3.15;;;29.20;46.50;;;;;;6249689;22;20391;-89
2021/08/14 12:33:56;;;;;;;3.45;3.08;;;29.40;45.80;;;;;;6250624;22;20009;-90
2021/08/14 12:37:06;;;;;;;2.90;2.40;;;29.50;45.80;;;;;;6250563;22;20079;-90
2021/08/14 12:39:55;;;;;;;3.38;2.60;;;29.80;43.10;;;;;;6236625;22;20008;-90
2021/08/14 12:42:25;;;;;;;3.13;2.80;;;30.00;45.50;;;;;;6250604;22;20503;-90
2021/08/14 12:44:51;;;;;;;2.60;2.33;;;30.40;45.60;;;;;;6250361;22;20054;-90
2021/08/14 12:47:30;;;;;;;4.00;2.67;;;30.80;45.80;;;;;;6249865;22;19999;-90
2021/08/14 12:50:17;;;;;;;2.50;2.30;;;31.20;44.80;;;;;;6256948;22;20011;-90